createdAt,value
2019-05-10T00:00:54.810Z,80.60
2019-05-10T00:03:41.423Z,80.50
2019-05-10T00:06:27.841Z,80.50
2019-05-10T00:08:55.887Z,80.40
2019-05-10T00:11:43.050Z,80.60
2019-05-10T00:14:25.539Z,80.40
2019-05-10T00:16:55.934Z,80.50
2019-05-10T00:19:24.320Z,80.60
2019-05-10T00:21:52.721Z,80.70
2019-05-10T00:24:21.149Z,80.60
2019-05-10T00:26:49.811Z,80.70
2019-05-10T00:29:18.613Z,80.60
2019-05-10T00:31:48.696Z,80.70
2019-05-10T00:34:17.089Z,80.70
2019-05-10T00:36:45.762Z,80.70
2019-05-10T00:39:14.447Z,80.40
2019-05-10T00:41:42.838Z,80.80
2019-05-10T00:44:12.134Z,80.80
2019-05-10T00:46:40.926Z,80.80
2019-05-10T00:49:09.319Z,80.60
2019-05-10T00:51:37.697Z,80.40
2019-05-10T00:54:06.134Z,80.10
2019-05-10T00:56:34.975Z,80.00
2019-05-10T00:59:04.038Z,79.80
2019-05-10T01:01:32.772Z,79.70
2019-05-10T01:04:01.164Z,79.50
2019-05-10T01:06:29.561Z,79.50
2019-05-10T01:08:57.986Z,79.50
2019-05-10T01:11:26.914Z,79.50
2019-05-10T01:13:55.928Z,79.60
2019-05-10T01:16:24.830Z,79.60
2019-05-10T01:18:53.301Z,79.40
2019-05-10T01:21:21.970Z,79.60
2019-05-10T01:23:50.397Z,79.50
2019-05-10T01:26:19.048Z,79.50
2019-05-10T01:28:47.434Z,79.50
2019-05-10T01:31:15.905Z,79.50
2019-05-10T01:33:44.621Z,79.50
2019-05-10T01:36:13.113Z,79.50
2019-05-10T01:38:41.816Z,79.60
2019-05-10T01:41:10.221Z,79.60
2019-05-10T01:43:38.681Z,79.70
2019-05-10T01:46:07.447Z,79.80
2019-05-10T01:48:36.105Z,79.80
2019-05-10T01:51:04.502Z,79.90
2019-05-10T01:53:33.211Z,79.90
2019-05-10T01:56:01.894Z,79.90
2019-05-10T01:58:30.587Z,79.90
2019-05-10T02:00:59.013Z,80.00
2019-05-10T02:03:27.488Z,80.00
2019-05-10T02:05:55.878Z,80.10
2019-05-10T02:08:24.651Z,80.20
2019-05-10T02:10:53.033Z,80.30
2019-05-10T02:13:21.426Z,80.30
2019-05-10T02:15:51.335Z,80.40
2019-05-10T02:18:19.726Z,80.50
2019-05-10T02:20:48.130Z,80.60
2019-05-10T02:23:16.526Z,80.70
2019-05-10T02:25:45.176Z,80.80
2019-05-10T02:28:13.849Z,80.80
2019-05-10T02:30:42.563Z,80.70
2019-05-10T02:33:11.338Z,80.80
2019-05-10T02:35:40.070Z,80.80
2019-05-10T02:38:09.639Z,81.10
2019-05-10T02:40:38.134Z,81.10
2019-05-10T02:43:06.602Z,81.00
2019-05-10T02:45:35.032Z,80.90
2019-05-10T02:48:03.879Z,80.70
2019-05-10T02:50:32.678Z,80.80
2019-05-10T02:53:01.780Z,80.80
2019-05-10T02:55:31.179Z,80.80
2019-05-10T02:58:01.091Z,80.80
2019-05-10T03:00:30.669Z,81.00
2019-05-10T03:03:00.030Z,80.90
2019-05-10T03:05:31.158Z,81.00
2019-05-10T03:08:01.118Z,81.00
2019-05-10T03:10:32.752Z,81.10
2019-05-10T03:13:03.564Z,81.10
2019-05-10T03:15:37.126Z,81.30
2019-05-10T03:18:06.831Z,81.30
2019-05-10T03:20:37.834Z,81.30
2019-05-10T03:23:09.776Z,81.30
2019-05-10T03:25:38.170Z,81.20
2019-05-10T03:28:06.837Z,81.20
2019-05-10T03:30:35.560Z,81.30
2019-05-10T03:33:04.352Z,81.40
2019-05-10T03:35:33.179Z,81.50
2019-05-10T03:38:01.941Z,81.40
2019-05-10T03:40:31.646Z,81.60
2019-05-10T03:43:00.338Z,81.70
2019-05-10T03:45:29.036Z,81.80
2019-05-10T03:47:57.646Z,81.90
2019-05-10T03:50:26.309Z,81.80
2019-05-10T03:52:55.301Z,81.90
2019-05-10T03:55:23.709Z,81.60
2019-05-10T03:57:52.137Z,81.60
2019-05-10T04:00:21.603Z,81.50
2019-05-10T04:02:50.069Z,81.30
2019-05-10T04:05:18.905Z,81.20
2019-05-10T04:07:47.308Z,81.20
2019-05-10T04:10:20.637Z,81.10
2019-05-10T04:12:47.488Z,81.10
2019-05-10T04:15:15.994Z,81.30
2019-05-10T04:17:44.668Z,81.20
2019-05-10T04:20:13.131Z,81.00
2019-05-10T04:22:41.807Z,80.80
2019-05-10T04:25:11.559Z,80.80
2019-05-10T04:27:39.938Z,80.70
2019-05-10T04:30:09.234Z,80.40
2019-05-10T04:32:37.725Z,80.40
2019-05-10T04:35:07.081Z,80.40
2019-05-10T04:37:36.150Z,80.50
2019-05-10T04:40:06.616Z,80.30
2019-05-10T04:42:35.083Z,80.10
2019-05-10T04:45:04.013Z,80.10
2019-05-10T04:47:32.473Z,80.10
2019-05-10T04:50:00.864Z,80.20
2019-05-10T04:52:29.306Z,80.10
2019-05-10T04:54:58.210Z,80.00
2019-05-10T04:57:27.002Z,80.10
2019-05-10T04:59:56.215Z,80.10
2019-05-10T05:02:25.073Z,80.20
2019-05-10T05:04:53.780Z,80.20
2019-05-10T05:07:22.240Z,80.10
2019-05-10T05:09:50.662Z,80.00
2019-05-10T05:12:19.154Z,79.70
2019-05-10T05:14:47.602Z,79.60
2019-05-10T05:17:16.008Z,79.60
2019-05-10T05:19:44.854Z,79.30
2019-05-10T05:22:14.049Z,79.10
2019-05-10T05:24:42.799Z,79.10
2019-05-10T05:27:11.203Z,79.00
2019-05-10T05:29:39.694Z,78.70
2019-05-10T05:32:08.083Z,78.60
2019-05-10T05:34:37.658Z,78.40
2019-05-10T05:37:06.103Z,78.10
2019-05-10T05:39:35.156Z,78.20
2019-05-10T05:42:03.749Z,78.30
2019-05-10T05:44:32.525Z,78.30
2019-05-10T05:47:04.450Z,78.40
2019-05-10T05:49:31.080Z,78.10
2019-05-10T05:51:59.842Z,78.10
2019-05-10T05:54:28.706Z,78.30
2019-05-10T05:56:57.129Z,78.30
2019-05-10T05:59:29.357Z,78.10
2019-05-10T06:02:00.474Z,77.80
2019-05-10T06:04:28.485Z,77.60
2019-05-10T06:06:59.163Z,77.40
2019-05-10T06:09:32.015Z,77.00
2019-05-10T06:11:57.860Z,77.30
2019-05-10T06:14:26.498Z,77.40
2019-05-10T06:16:54.921Z,76.50
2019-05-10T06:19:29.462Z,76.30
2019-05-10T06:21:57.957Z,75.80
2019-05-10T06:24:23.945Z,75.90
2019-05-10T06:26:52.864Z,75.90
2019-05-10T06:29:22.033Z,75.30
2019-05-10T06:31:50.923Z,74.50
2019-05-10T06:34:19.759Z,75.30
2019-05-10T06:36:48.315Z,74.50
2019-05-10T06:39:16.715Z,74.20
2019-05-10T06:41:50.131Z,74.10
2019-05-10T06:44:15.270Z,72.40
2019-05-10T06:46:43.997Z,72.30
2019-05-10T06:49:12.801Z,72.50
2019-05-10T06:51:42.770Z,72.50
2019-05-10T06:54:11.823Z,72.70
2019-05-10T06:56:40.504Z,71.90
2019-05-10T06:59:13.401Z,71.40
2019-05-10T07:01:45.252Z,71.20
2019-05-10T07:04:10.933Z,70.90
2019-05-10T07:06:39.722Z,70.40
2019-05-10T07:09:08.708Z,70.70
2019-05-10T07:11:38.112Z,71.30
2019-05-10T07:14:06.602Z,70.10
2019-05-10T07:16:35.106Z,70.00
2019-05-10T07:19:04.649Z,70.60
2019-05-10T07:21:33.452Z,70.00
2019-05-10T07:24:02.326Z,69.50
2019-05-10T07:26:30.760Z,68.60
2019-05-10T07:28:59.413Z,68.00
2019-05-10T07:31:28.911Z,68.40
2019-05-10T07:33:57.331Z,68.50
2019-05-10T07:36:29.719Z,69.30
2019-05-10T07:38:55.978Z,67.50
2019-05-10T07:41:26.653Z,66.40
2019-05-10T07:44:00.475Z,66.40
2019-05-10T07:46:25.148Z,65.90
2019-05-10T07:48:54.078Z,65.70
2019-05-10T07:51:28.310Z,65.80
2019-05-10T07:53:56.961Z,65.00
2019-05-10T07:56:23.403Z,64.70
2019-05-10T07:58:51.834Z,65.50
2019-05-10T08:01:29.146Z,66.90
2019-05-10T08:03:52.521Z,66.80
2019-05-10T08:06:20.725Z,66.60
2019-05-10T08:08:49.789Z,65.90
2019-05-10T08:11:19.095Z,66.20
2019-05-10T08:13:48.628Z,65.70
2019-05-10T08:16:22.698Z,65.60
2019-05-10T08:18:49.825Z,64.60
2019-05-10T08:21:22.469Z,64.20
2019-05-10T08:23:48.489Z,64.00
2019-05-10T08:26:21.869Z,64.70
2019-05-10T08:28:47.285Z,64.70
2019-05-10T08:31:16.003Z,63.50
2019-05-10T08:33:56.251Z,62.90
2019-05-10T08:36:15.848Z,62.50
2019-05-10T08:38:56.286Z,63.00
2019-05-10T08:41:18.364Z,62.30
2019-05-10T08:43:46.825Z,62.20
2019-05-10T08:46:19.470Z,62.10
2019-05-10T08:48:50.396Z,62.90
2019-05-10T08:51:16.004Z,61.50
2019-05-10T08:53:47.198Z,60.60
2019-05-10T08:56:20.860Z,60.70
2019-05-10T08:58:45.189Z,60.90
2019-05-10T09:01:26.168Z,59.80
2019-05-10T09:03:47.058Z,59.20
2019-05-10T09:06:16.940Z,60.60
2019-05-10T09:08:44.678Z,59.10
2019-05-10T09:11:13.351Z,59.00
2019-05-10T09:13:45.901Z,59.20
2019-05-10T09:16:13.660Z,57.30
2019-05-10T09:18:46.199Z,56.10
2019-05-10T09:21:14.215Z,55.20
2019-05-10T09:23:42.837Z,55.20
2019-05-10T09:26:16.215Z,53.30
2019-05-10T09:28:42.218Z,52.20
2019-05-10T09:31:19.786Z,51.20
2019-05-10T09:33:49.263Z,48.20
2019-05-10T09:36:12.540Z,47.60
2019-05-10T09:38:43.414Z,47.10
2019-05-10T09:41:12.398Z,46.80
2019-05-10T09:43:48.367Z,45.20
2019-05-10T09:46:11.480Z,45.50
2019-05-10T09:48:44.626Z,45.20
2019-05-10T09:51:13.719Z,45.10
2019-05-10T09:53:42.082Z,45.10
2019-05-10T09:56:11.100Z,45.00
2019-05-10T09:58:39.870Z,45.30
2019-05-10T10:01:14.668Z,44.80
2019-05-10T10:03:43.170Z,44.30
2019-05-10T10:06:11.597Z,45.40
2019-05-10T10:08:43.511Z,46.40
2019-05-10T10:11:15.531Z,46.20
2019-05-10T10:13:43.845Z,46.70
2019-05-10T10:16:14.781Z,46.50
2019-05-10T10:18:41.343Z,47.10
2019-05-10T10:21:10.984Z,47.60
2019-05-10T10:23:40.140Z,46.70
2019-05-10T10:26:12.560Z,46.60
2019-05-10T10:28:39.851Z,49.30
2019-05-10T10:31:08.708Z,48.80
2019-05-10T10:33:37.937Z,48.80
2019-05-10T10:36:09.923Z,48.40
2019-05-10T10:38:45.034Z,48.10
2019-05-10T10:41:08.288Z,47.60
2019-05-10T10:43:37.393Z,48.10
2019-05-10T10:46:12.163Z,47.20
2019-05-10T10:48:37.064Z,47.70
2019-05-10T10:51:08.079Z,47.20
2019-05-10T10:53:37.329Z,46.80
2019-05-10T10:56:11.532Z,46.40
2019-05-10T10:58:40.049Z,46.40
2019-05-10T11:01:19.890Z,47.00
2019-05-10T11:03:39.469Z,46.70
2019-05-10T11:06:08.159Z,46.30
2019-05-10T11:08:36.609Z,46.80
2019-05-10T11:11:05.020Z,47.20
2019-05-10T11:13:45.395Z,48.50
2019-05-10T11:16:13.621Z,47.10
2019-05-10T11:18:35.067Z,47.10
2019-05-10T11:21:03.478Z,47.40
2019-05-10T11:23:38.489Z,47.20
2019-05-10T11:26:02.588Z,46.40
2019-05-10T11:28:38.821Z,46.10
2019-05-10T11:31:01.406Z,47.20
2019-05-10T11:33:33.342Z,47.80
2019-05-10T11:36:04.089Z,47.00
2019-05-10T11:38:31.704Z,47.70
2019-05-10T11:41:02.099Z,45.90
2019-05-10T11:43:31.842Z,46.40
2019-05-10T11:46:00.696Z,46.20
2019-05-10T11:48:36.924Z,46.30
2019-05-10T11:50:59.325Z,47.00
2019-05-10T11:53:28.004Z,46.00
2019-05-10T11:55:56.815Z,47.80
2019-05-10T11:58:27.229Z,45.60
2019-05-10T12:00:59.293Z,46.20
2019-05-10T12:03:25.806Z,46.00
2019-05-10T12:08:24.638Z,45.60
2019-05-10T12:11:07.516Z,45.40
2019-05-10T12:13:25.221Z,45.40
2019-05-10T12:15:54.303Z,45.50
2019-05-10T12:18:26.764Z,45.20
2019-05-10T12:23:30.209Z,44.10
2019-05-10T12:26:05.557Z,45.70
2019-05-10T12:26:06.271Z,44.50
2019-05-10T12:27:07.376Z,44.80
2019-05-10T12:28:28.499Z,45.70
2019-05-10T12:30:54.719Z,45.70
2019-05-10T12:33:27.373Z,44.80
2019-05-10T12:35:54.228Z,45.90
2019-05-10T12:38:29.626Z,46.00
2019-05-10T12:40:55.763Z,46.30
2019-05-10T12:43:24.659Z,46.20
2019-05-10T12:45:53.423Z,46.00
2019-05-10T12:48:23.638Z,46.30
2019-05-10T12:50:58.063Z,44.90
2019-05-10T12:53:22.601Z,45.40
2019-05-10T12:55:51.338Z,44.60
2019-05-10T12:58:19.801Z,44.70
2019-05-10T13:00:52.525Z,45.20
2019-05-10T13:03:19.513Z,45.10
2019-05-10T13:05:52.701Z,46.20
2019-05-10T13:08:18.471Z,45.10
2019-05-10T13:10:49.658Z,44.70
2019-05-10T13:13:22.427Z,43.90
2019-05-10T13:15:47.436Z,43.20
2019-05-10T13:18:16.086Z,44.20
2019-05-10T13:20:44.929Z,45.20
2019-05-10T13:23:15.925Z,44.90
2019-05-10T13:25:43.894Z,43.90
2019-05-10T13:28:12.309Z,44.20
2019-05-10T13:30:41.033Z,44.40
2019-05-10T13:33:09.460Z,43.20
2019-05-10T13:35:37.940Z,43.30
2019-05-10T13:38:06.676Z,44.20
2019-05-10T13:40:39.020Z,44.40
2019-05-10T13:43:05.497Z,42.90
2019-05-10T13:45:37.737Z,42.50
2019-05-10T13:48:04.434Z,42.80
2019-05-10T13:50:33.093Z,42.20
2019-05-10T13:53:01.989Z,42.40
2019-05-10T13:55:31.234Z,42.40
2019-05-10T13:57:59.701Z,41.90
2019-05-10T14:00:33.142Z,42.20
2019-05-10T14:02:59.015Z,42.00
2019-05-10T14:05:27.882Z,41.20
2019-05-10T14:07:56.838Z,41.50
2019-05-10T14:10:25.494Z,42.30
2019-05-10T14:12:56.007Z,42.30
2019-05-10T14:15:24.770Z,42.60
2019-05-10T14:17:53.594Z,41.70
2019-05-10T14:20:27.524Z,41.90
2019-05-10T14:22:55.880Z,41.80
2019-05-10T14:25:22.996Z,41.60
2019-05-10T14:27:51.412Z,42.10
2019-05-10T14:30:19.989Z,41.90
2019-05-10T14:32:48.452Z,42.20
2019-05-10T14:35:22.652Z,42.70
2019-05-10T14:37:47.948Z,42.10
2019-05-10T14:40:27.488Z,42.40
2019-05-10T14:42:47.420Z,41.60
2019-05-10T14:45:16.475Z,42.30
2019-05-10T14:47:50.037Z,41.80
2019-05-10T14:50:19.307Z,41.40
2019-05-10T14:52:47.278Z,41.50
2019-05-10T14:55:16.220Z,40.50
2019-05-10T14:57:44.922Z,41.60
2019-05-10T15:00:14.191Z,42.00
2019-05-10T15:02:43.120Z,41.70
2019-05-10T15:05:15.742Z,40.70
2019-05-10T15:07:44.405Z,41.50
2019-05-10T15:10:13.285Z,40.50
2019-05-10T15:12:41.723Z,40.70
2019-05-10T15:15:10.894Z,40.60
2019-05-10T15:17:40.053Z,40.70
2019-05-10T15:20:09.158Z,41.00
2019-05-10T15:22:37.769Z,40.40
2019-05-10T15:25:06.855Z,41.80
2019-05-10T15:27:35.646Z,40.70
2019-05-10T15:30:08.114Z,40.60
2019-05-10T15:32:36.864Z,41.50
2019-05-10T15:35:08.255Z,42.30
2019-05-10T15:37:40.731Z,41.60
2019-05-10T15:40:08.736Z,40.70
2019-05-10T15:42:38.440Z,41.10
2019-05-10T15:45:12.125Z,41.70
2019-05-10T15:47:50.813Z,41.80
2019-05-10T15:50:10.163Z,42.60
2019-05-10T15:52:46.331Z,42.50
2019-05-10T15:55:16.567Z,42.20
2019-05-10T15:57:42.551Z,42.60
2019-05-10T16:00:11.570Z,42.60
2019-05-10T16:02:40.653Z,42.70
2019-05-10T16:05:23.969Z,42.30
2019-05-10T16:07:41.087Z,42.80
2019-05-10T16:10:09.654Z,43.60
2019-05-10T16:12:42.947Z,42.80
2019-05-10T16:15:13.923Z,43.00
2019-05-10T16:17:39.576Z,42.90
2019-05-10T16:20:08.693Z,43.30
2019-05-10T16:22:37.172Z,43.30
2019-05-10T16:25:06.748Z,42.50
2019-05-10T16:27:41.521Z,42.70
2019-05-10T16:30:12.099Z,43.10
2019-05-10T16:32:38.835Z,43.20
2019-05-10T16:35:12.925Z,43.10
2019-05-10T16:37:38.580Z,43.00
2019-05-10T16:40:10.922Z,42.50
2019-05-10T16:42:39.424Z,42.30
2019-05-10T16:45:08.293Z,42.90
2019-05-10T16:47:36.854Z,42.50
2019-05-10T16:50:07.697Z,42.10
2019-05-10T16:52:36.211Z,42.40
2019-05-10T16:55:09.656Z,43.00
2019-05-10T16:57:39.365Z,43.30
2019-05-10T17:00:10.549Z,43.10
2019-05-10T17:02:42.150Z,42.80
2019-05-10T17:05:15.165Z,43.00
2019-05-10T17:07:41.284Z,43.20
2019-05-10T17:10:09.909Z,43.60
2019-05-10T17:12:38.335Z,44.60
2019-05-10T17:15:08.153Z,44.00
2019-05-10T17:17:37.555Z,43.40
2019-05-10T17:20:14.172Z,43.40
2019-05-10T17:22:41.620Z,43.70
2019-05-10T17:25:10.295Z,43.80
2019-05-10T17:27:38.730Z,43.50
2019-05-10T17:30:07.706Z,44.00
2019-05-10T17:32:36.449Z,43.90
2019-05-10T17:35:07.600Z,44.00
2019-05-10T17:37:37.480Z,44.30
2019-05-10T17:40:12.072Z,44.40
2019-05-10T17:42:41.768Z,44.40
2019-05-10T17:45:10.888Z,44.50
2019-05-10T17:47:39.332Z,44.40
2019-05-10T17:50:09.116Z,44.40
2019-05-10T17:52:37.572Z,45.10
2019-05-10T17:55:10.793Z,46.10
2019-05-10T17:57:37.289Z,45.90
2019-05-10T18:00:07.590Z,45.70
2019-05-10T18:02:36.326Z,45.70
2019-05-10T18:05:07.735Z,45.80
2019-05-10T18:07:36.207Z,46.80
2019-05-10T18:10:05.376Z,47.00
2019-05-10T18:12:33.777Z,47.00
2019-05-10T18:15:04.892Z,47.30
2019-05-10T18:17:32.392Z,48.60
2019-05-10T18:20:02.181Z,48.80
2019-05-10T18:22:41.762Z,49.10
2019-05-10T18:25:02.149Z,49.50
2019-05-10T18:27:30.586Z,50.10
2019-05-10T18:29:59.421Z,49.80
2019-05-10T18:32:29.248Z,49.70
2019-05-10T18:34:58.888Z,50.00
2019-05-10T18:37:27.398Z,50.90
2019-05-10T18:39:56.171Z,51.60
2019-05-10T18:42:26.007Z,51.80
2019-05-10T18:44:55.429Z,52.20
2019-05-10T18:47:24.085Z,52.70
2019-05-10T18:49:52.496Z,53.20
2019-05-10T18:52:21.302Z,53.70
2019-05-10T18:54:49.783Z,54.20
2019-05-10T18:57:19.511Z,54.60
2019-05-10T18:59:48.248Z,54.70
2019-05-10T19:02:19.650Z,54.50
2019-05-10T19:04:52.035Z,54.70
2019-05-10T19:07:17.265Z,55.10
2019-05-10T19:09:45.695Z,55.30
2019-05-10T19:12:18.615Z,55.30
2019-05-10T19:14:45.930Z,55.50
2019-05-10T19:17:14.337Z,55.60
2019-05-10T19:19:42.862Z,56.10
2019-05-10T19:22:11.372Z,56.00
2019-05-10T19:24:40.214Z,56.60
2019-05-10T19:27:09.366Z,56.80
2019-05-10T19:29:45.011Z,56.70
2019-05-10T19:32:17.301Z,56.60
2019-05-10T19:34:41.506Z,57.20
2019-05-10T19:37:10.510Z,57.40
2019-05-10T19:39:38.950Z,58.00
2019-05-10T19:42:07.802Z,58.10
2019-05-10T19:44:40.509Z,57.60
2019-05-10T19:47:11.060Z,58.20
2019-05-10T19:49:36.758Z,58.60
2019-05-10T19:52:05.318Z,58.80
2019-05-10T19:54:34.102Z,58.70
2019-05-10T19:57:02.997Z,58.70
2019-05-10T19:59:31.499Z,58.10
2019-05-10T20:02:02.242Z,57.70
2019-05-10T20:04:30.670Z,58.60
2019-05-10T20:06:59.698Z,59.40
2019-05-10T20:09:28.433Z,59.50
2019-05-10T20:11:56.874Z,59.20
2019-05-10T20:14:25.459Z,58.60
2019-05-10T20:16:54.149Z,58.40
2019-05-10T20:19:22.742Z,58.40
2019-05-10T20:21:51.309Z,58.20
2019-05-10T20:24:19.771Z,58.30
2019-05-10T20:26:49.697Z,58.50
2019-05-10T20:29:19.600Z,58.60
2019-05-10T20:31:48.130Z,58.40
2019-05-10T20:34:17.339Z,58.20
2019-05-10T20:36:45.775Z,58.50
2019-05-10T20:39:14.209Z,58.20
2019-05-10T20:41:42.729Z,58.70
2019-05-10T20:44:11.223Z,59.20
2019-05-10T20:46:39.641Z,58.90
2019-05-10T20:49:08.572Z,59.10
2019-05-10T20:51:37.061Z,58.60
2019-05-10T20:54:06.122Z,59.00
2019-05-10T20:56:35.015Z,59.80
2019-05-10T20:59:03.501Z,59.90
2019-05-10T21:01:31.927Z,60.00
2019-05-10T21:04:00.383Z,60.50
2019-05-10T21:06:29.163Z,60.80
2019-05-10T21:08:57.562Z,61.20
2019-05-10T21:11:25.989Z,61.80
2019-05-10T21:13:57.818Z,62.10
2019-05-10T21:16:24.893Z,62.10
2019-05-10T21:18:53.639Z,62.30
2019-05-10T21:21:22.311Z,62.70
2019-05-10T21:23:50.745Z,62.60
2019-05-10T21:26:20.556Z,63.30
2019-05-10T21:28:49.047Z,63.40
2019-05-10T21:31:17.442Z,63.30
2019-05-10T21:33:45.891Z,63.50
2019-05-10T21:36:14.304Z,64.30
2019-05-10T21:38:42.764Z,64.60
2019-05-10T21:41:11.268Z,65.20
2019-05-10T21:43:39.707Z,65.60
2019-05-10T21:46:08.206Z,66.30
2019-05-10T21:48:37.045Z,66.90
2019-05-10T21:51:05.463Z,66.90
2019-05-10T21:53:33.915Z,67.10
2019-05-10T21:56:02.622Z,67.30
2019-05-10T21:58:31.031Z,67.50
2019-05-10T22:00:59.770Z,67.60
2019-05-10T22:03:28.538Z,67.60
2019-05-10T22:05:57.298Z,67.80
2019-05-10T22:08:25.738Z,68.00
2019-05-10T22:10:54.588Z,68.40
2019-05-10T22:13:23.396Z,68.40
2019-05-10T22:15:51.808Z,68.40
2019-05-10T22:18:20.273Z,68.20
2019-05-10T22:20:48.941Z,68.20
2019-05-10T22:23:17.640Z,68.80
2019-05-10T22:25:46.549Z,69.40
2019-05-10T22:28:14.958Z,69.30
2019-05-10T22:30:43.750Z,69.80
2019-05-10T22:33:13.200Z,70.10
2019-05-10T22:35:41.606Z,70.50
2019-05-10T22:38:10.097Z,70.70
2019-05-10T22:40:38.526Z,70.90
2019-05-10T22:43:07.236Z,71.60
2019-05-10T22:45:35.648Z,71.90
2019-05-10T22:48:04.109Z,72.20
2019-05-10T22:50:32.753Z,72.60
2019-05-10T22:53:01.489Z,72.80
2019-05-10T22:55:30.028Z,72.80
2019-05-10T22:57:58.981Z,72.90
2019-05-10T23:00:28.016Z,73.10
2019-05-10T23:02:56.759Z,73.00
2019-05-10T23:05:25.186Z,73.20
2019-05-10T23:07:53.597Z,73.40
2019-05-10T23:10:22.427Z,73.60
2019-05-10T23:12:50.841Z,73.70
2019-05-10T23:15:19.609Z,74.00
2019-05-10T23:17:48.145Z,74.10
2019-05-10T23:20:16.630Z,74.30
2019-05-10T23:22:45.354Z,74.40
2019-05-10T23:25:14.061Z,74.50
2019-05-10T23:27:43.444Z,74.30
2019-05-10T23:30:12.153Z,74.10
2019-05-10T23:32:40.857Z,73.90
2019-05-10T23:35:09.441Z,74.00
2019-05-10T23:37:38.222Z,74.20
2019-05-10T23:40:07.076Z,74.40
2019-05-10T23:42:36.130Z,74.90
2019-05-10T23:45:06.500Z,75.10
2019-05-10T23:47:34.909Z,74.90
2019-05-10T23:50:03.926Z,75.00
2019-05-10T23:52:32.752Z,75.40
2019-05-10T23:55:01.535Z,75.50
2019-05-10T23:57:29.958Z,75.60
2019-05-10T23:59:58.683Z,75.90
